sensor_id;sensor_type;location;lat;lon;timestamp;P1;durP1;ratioP1;P2;durP2;ratioP2
60999;SDS011;46879;45.658;11.814;2023-09-18T00:04:59;7.88;;;7.15;;
60999;SDS011;46879;45.658;11.814;2023-09-18T00:10:00;8.63;;;7.03;;
60999;SDS011;46879;45.658;11.814;2023-09-18T00:15:00;9.50;;;7.72;;
60999;SDS011;46879;45.658;11.814;2023-09-18T00:20:01;8.77;;;7.80;;
60999;SDS011;46879;45.658;11.814;2023-09-18T00:25:05;9.27;;;6.70;;
60999;SDS011;46879;45.658;11.814;2023-09-18T00:30:06;7.55;;;6.28;;
60999;SDS011;46879;45.658;11.814;2023-09-18T00:35:07;8.18;;;6.82;;
60999;SDS011;46879;45.658;11.814;2023-09-18T00:40:08;15.80;;;6.80;;
60999;SDS011;46879;45.658;11.814;2023-09-18T00:45:09;7.63;;;6.82;;
60999;SDS011;46879;45.658;11.814;2023-09-18T00:50:10;8.13;;;6.80;;
60999;SDS011;46879;45.658;11.814;2023-09-18T00:55:12;11.30;;;7.65;;
60999;SDS011;46879;45.658;11.814;2023-09-18T01:00:15;7.75;;;6.95;;
60999;SDS011;46879;45.658;11.814;2023-09-18T01:05:16;10.63;;;7.45;;
60999;SDS011;46879;45.658;11.814;2023-09-18T01:10:17;9.40;;;6.43;;
60999;SDS011;46879;45.658;11.814;2023-09-18T01:15:24;9.55;;;6.82;;
60999;SDS011;46879;45.658;11.814;2023-09-18T01:20:30;8.27;;;7.20;;
60999;SDS011;46879;45.658;11.814;2023-09-18T01:25:31;8.95;;;7.13;;
60999;SDS011;46879;45.658;11.814;2023-09-18T01:30:33;8.30;;;7.38;;
60999;SDS011;46879;45.658;11.814;2023-09-18T01:35:34;8.52;;;7.18;;
60999;SDS011;46879;45.658;11.814;2023-09-18T01:40:37;9.45;;;7.57;;
60999;SDS011;46879;45.658;11.814;2023-09-18T01:45:38;8.95;;;8.05;;
60999;SDS011;46879;45.658;11.814;2023-09-18T01:50:39;12.95;;;7.70;;
60999;SDS011;46879;45.658;11.814;2023-09-18T01:55:40;11.82;;;8.23;;
60999;SDS011;46879;45.658;11.814;2023-09-18T02:00:41;9.45;;;8.07;;
60999;SDS011;46879;45.658;11.814;2023-09-18T02:05:42;11.00;;;8.93;;
60999;SDS011;46879;45.658;11.814;2023-09-18T02:10:42;11.02;;;8.90;;
60999;SDS011;46879;45.658;11.814;2023-09-18T02:15:43;10.90;;;8.82;;
60999;SDS011;46879;45.658;11.814;2023-09-18T02:20:44;9.23;;;8.30;;
60999;SDS011;46879;45.658;11.814;2023-09-18T02:25:55;8.82;;;7.65;;
60999;SDS011;46879;45.658;11.814;2023-09-18T02:30:57;10.05;;;8.65;;
60999;SDS011;46879;45.658;11.814;2023-09-18T02:35:57;16.88;;;9.63;;
60999;SDS011;46879;45.658;11.814;2023-09-18T02:40:58;11.40;;;9.63;;
60999;SDS011;46879;45.658;11.814;2023-09-18T02:45:59;13.40;;;10.07;;
60999;SDS011;46879;45.658;11.814;2023-09-18T02:51:00;10.90;;;9.80;;
60999;SDS011;46879;45.658;11.814;2023-09-18T02:56:02;10.98;;;9.82;;
60999;SDS011;46879;45.658;11.814;2023-09-18T03:01:02;13.43;;;10.85;;
60999;SDS011;46879;45.658;11.814;2023-09-18T03:06:05;13.70;;;10.25;;
60999;SDS011;46879;45.658;11.814;2023-09-18T03:11:13;12.75;;;10.55;;
60999;SDS011;46879;45.658;11.814;2023-09-18T03:16:14;15.52;;;9.82;;
60999;SDS011;46879;45.658;11.814;2023-09-18T03:21:15;14.02;;;10.50;;
60999;SDS011;46879;45.658;11.814;2023-09-18T03:26:15;11.77;;;9.05;;
60999;SDS011;46879;45.658;11.814;2023-09-18T03:31:16;13.20;;;9.25;;
60999;SDS011;46879;45.658;11.814;2023-09-18T03:36:17;14.30;;;10.02;;
60999;SDS011;46879;45.658;11.814;2023-09-18T03:41:20;14.52;;;10.05;;
60999;SDS011;46879;45.658;11.814;2023-09-18T03:46:21;14.40;;;10.70;;
60999;SDS011;46879;45.658;11.814;2023-09-18T03:51:21;11.23;;;10.02;;
60999;SDS011;46879;45.658;11.814;2023-09-18T03:56:22;14.65;;;10.00;;
60999;SDS011;46879;45.658;11.814;2023-09-18T04:01:23;12.75;;;9.35;;
60999;SDS011;46879;45.658;11.814;2023-09-18T04:06:23;11.70;;;9.52;;
60999;SDS011;46879;45.658;11.814;2023-09-18T04:11:24;11.93;;;9.32;;
60999;SDS011;46879;45.658;11.814;2023-09-18T04:16:26;9.55;;;8.48;;
60999;SDS011;46879;45.658;11.814;2023-09-18T04:21:27;10.88;;;8.35;;
60999;SDS011;46879;45.658;11.814;2023-09-18T04:26:29;10.05;;;8.50;;
60999;SDS011;46879;45.658;11.814;2023-09-18T04:31:30;13.93;;;9.40;;
60999;SDS011;46879;45.658;11.814;2023-09-18T04:36:31;15.07;;;9.75;;
60999;SDS011;46879;45.658;11.814;2023-09-18T04:41:32;12.32;;;9.35;;
60999;SDS011;46879;45.658;11.814;2023-09-18T04:46:33;11.38;;;8.75;;
60999;SDS011;46879;45.658;11.814;2023-09-18T04:51:37;9.40;;;7.82;;
60999;SDS011;46879;45.658;11.814;2023-09-18T04:56:39;15.73;;;7.72;;
60999;SDS011;46879;45.658;11.814;2023-09-18T05:01:39;14.32;;;8.25;;
60999;SDS011;46879;45.658;11.814;2023-09-18T05:06:40;8.40;;;7.50;;
60999;SDS011;46879;45.658;11.814;2023-09-18T05:11:42;7.28;;;6.55;;
60999;SDS011;46879;45.658;11.814;2023-09-18T05:16:42;8.00;;;6.72;;
60999;SDS011;46879;45.658;11.814;2023-09-18T05:21:43;7.22;;;6.32;;
60999;SDS011;46879;45.658;11.814;2023-09-18T05:26:43;9.95;;;6.20;;
60999;SDS011;46879;45.658;11.814;2023-09-18T05:31:44;8.88;;;5.90;;
60999;SDS011;46879;45.658;11.814;2023-09-18T05:36:45;8.90;;;5.60;;
60999;SDS011;46879;45.658;11.814;2023-09-18T05:41:46;9.23;;;5.53;;
60999;SDS011;46879;45.658;11.814;2023-09-18T05:46:47;13.00;;;5.25;;
60999;SDS011;46879;45.658;11.814;2023-09-18T05:51:47;4.85;;;4.38;;
60999;SDS011;46879;45.658;11.814;2023-09-18T05:56:48;8.30;;;4.22;;
60999;SDS011;46879;45.658;11.814;2023-09-18T06:01:49;11.00;;;4.55;;
60999;SDS011;46879;45.658;11.814;2023-09-18T06:06:50;5.43;;;4.68;;
60999;SDS011;46879;45.658;11.814;2023-09-18T06:11:52;7.22;;;4.40;;
60999;SDS011;46879;45.658;11.814;2023-09-18T06:16:52;10.80;;;4.55;;
60999;SDS011;46879;45.658;11.814;2023-09-18T06:21:53;10.07;;;4.68;;
60999;SDS011;46879;45.658;11.814;2023-09-18T06:26:54;12.10;;;4.40;;
60999;SDS011;46879;45.658;11.814;2023-09-18T06:31:54;9.57;;;4.35;;
60999;SDS011;46879;45.658;11.814;2023-09-18T06:36:55;8.77;;;4.22;;
60999;SDS011;46879;45.658;11.814;2023-09-18T06:41:55;8.27;;;4.53;;
60999;SDS011;46879;45.658;11.814;2023-09-18T06:46:56;4.25;;;3.88;;
60999;SDS011;46879;45.658;11.814;2023-09-18T06:51:57;9.27;;;4.25;;
60999;SDS011;46879;45.658;11.814;2023-09-18T06:56:58;9.38;;;3.72;;
60999;SDS011;46879;45.658;11.814;2023-09-18T07:01:59;11.38;;;4.20;;
60999;SDS011;46879;45.658;11.814;2023-09-18T07:07:01;8.82;;;4.57;;
60999;SDS011;46879;45.658;11.814;2023-09-18T07:12:01;8.85;;;4.70;;
60999;SDS011;46879;45.658;11.814;2023-09-18T07:17:02;14.77;;;4.80;;
60999;SDS011;46879;45.658;11.814;2023-09-18T07:22:03;11.45;;;4.78;;
60999;SDS011;46879;45.658;11.814;2023-09-18T07:27:04;6.70;;;4.68;;
60999;SDS011;46879;45.658;11.814;2023-09-18T07:32:05;8.40;;;4.70;;
60999;SDS011;46879;45.658;11.814;2023-09-18T07:37:05;13.43;;;4.43;;
60999;SDS011;46879;45.658;11.814;2023-09-18T07:42:06;8.93;;;5.35;;
60999;SDS011;46879;45.658;11.814;2023-09-18T07:47:07;10.48;;;4.63;;
60999;SDS011;46879;45.658;11.814;2023-09-18T07:52:07;9.18;;;4.40;;
60999;SDS011;46879;45.658;11.814;2023-09-18T07:57:08;7.22;;;4.60;;
60999;SDS011;46879;45.658;11.814;2023-09-18T08:02:09;12.80;;;4.70;;
60999;SDS011;46879;45.658;11.814;2023-09-18T08:07:10;5.57;;;4.38;;
60999;SDS011;46879;45.658;11.814;2023-09-18T08:12:12;14.80;;;4.60;;
60999;SDS011;46879;45.658;11.814;2023-09-18T08:17:13;9.90;;;4.60;;
60999;SDS011;46879;45.658;11.814;2023-09-18T08:22:13;15.32;;;4.93;;
60999;SDS011;46879;45.658;11.814;2023-09-18T08:27:16;10.38;;;4.82;;
60999;SDS011;46879;45.658;11.814;2023-09-18T08:32:17;9.80;;;4.70;;
60999;SDS011;46879;45.658;11.814;2023-09-18T08:37:17;8.13;;;4.90;;
60999;SDS011;46879;45.658;11.814;2023-09-18T08:42:18;9.13;;;4.85;;
60999;SDS011;46879;45.658;11.814;2023-09-18T08:47:21;8.77;;;5.05;;
60999;SDS011;46879;45.658;11.814;2023-09-18T08:52:22;9.43;;;5.10;;
60999;SDS011;46879;45.658;11.814;2023-09-18T08:57:23;6.70;;;5.00;;
60999;SDS011;46879;45.658;11.814;2023-09-18T09:02:25;8.25;;;5.55;;
60999;SDS011;46879;45.658;11.814;2023-09-18T09:07:26;9.60;;;5.43;;
60999;SDS011;46879;45.658;11.814;2023-09-18T09:17:51;6.75;;;4.93;;
60999;SDS011;46879;45.658;11.814;2023-09-18T09:23:05;10.52;;;5.47;;
60999;SDS011;46879;45.658;11.814;2023-09-18T09:28:09;8.98;;;4.93;;
60999;SDS011;46879;45.658;11.814;2023-09-18T09:33:11;12.25;;;6.00;;
60999;SDS011;46879;45.658;11.814;2023-09-18T09:38:12;7.18;;;5.97;;
60999;SDS011;46879;45.658;11.814;2023-09-18T09:43:16;7.18;;;5.60;;
60999;SDS011;46879;45.658;11.814;2023-09-18T09:48:18;9.77;;;5.55;;
60999;SDS011;46879;45.658;11.814;2023-09-18T09:53:19;10.40;;;6.10;;
60999;SDS011;46879;45.658;11.814;2023-09-18T09:58:39;8.10;;;6.20;;
60999;SDS011;46879;45.658;11.814;2023-09-18T10:03:44;11.57;;;5.93;;
60999;SDS011;46879;45.658;11.814;2023-09-18T10:08:46;9.00;;;6.22;;
60999;SDS011;46879;45.658;11.814;2023-09-18T10:14:00;8.38;;;5.78;;
60999;SDS011;46879;45.658;11.814;2023-09-18T10:24:39;10.73;;;6.38;;
60999;SDS011;46879;45.658;11.814;2023-09-18T10:29:43;8.10;;;5.80;;
60999;SDS011;46879;45.658;11.814;2023-09-18T10:34:48;8.95;;;6.32;;
60999;SDS011;46879;45.658;11.814;2023-09-18T10:39:50;7.78;;;6.38;;
60999;SDS011;46879;45.658;11.814;2023-09-18T10:44:53;10.52;;;6.50;;
60999;SDS011;46879;45.658;11.814;2023-09-18T10:49:54;9.70;;;6.63;;
60999;SDS011;46879;45.658;11.814;2023-09-18T10:54:54;12.00;;;7.57;;
60999;SDS011;46879;45.658;11.814;2023-09-18T10:59:55;11.27;;;6.60;;
60999;SDS011;46879;45.658;11.814;2023-09-18T11:04:57;9.25;;;6.78;;
60999;SDS011;46879;45.658;11.814;2023-09-18T11:09:58;11.65;;;6.90;;
60999;SDS011;46879;45.658;11.814;2023-09-18T11:14:59;7.65;;;6.30;;
60999;SDS011;46879;45.658;11.814;2023-09-18T11:20:46;9.18;;;6.68;;
60999;SDS011;46879;45.658;11.814;2023-09-18T11:25:34;10.10;;;6.13;;
60999;SDS011;46879;45.658;11.814;2023-09-18T11:30:52;7.70;;;6.32;;
60999;SDS011;46879;45.658;11.814;2023-09-18T11:36:05;12.63;;;6.27;;
60999;SDS011;46879;45.658;11.814;2023-09-18T11:41:24;11.13;;;6.85;;
60999;SDS011;46879;45.658;11.814;2023-09-18T11:46:25;8.38;;;6.60;;
60999;SDS011;46879;45.658;11.814;2023-09-18T11:51:30;10.32;;;6.60;;
60999;SDS011;46879;45.658;11.814;2023-09-18T11:56:31;10.05;;;6.57;;
60999;SDS011;46879;45.658;11.814;2023-09-18T12:01:33;11.63;;;6.80;;
60999;SDS011;46879;45.658;11.814;2023-09-18T12:06:36;11.05;;;7.50;;
60999;SDS011;46879;45.658;11.814;2023-09-18T12:11:40;15.63;;;7.32;;
60999;SDS011;46879;45.658;11.814;2023-09-18T12:16:42;11.93;;;7.85;;
60999;SDS011;46879;45.658;11.814;2023-09-18T12:21:45;9.30;;;7.07;;
60999;SDS011;46879;45.658;11.814;2023-09-18T12:26:50;14.15;;;6.88;;
60999;SDS011;46879;45.658;11.814;2023-09-18T12:31:51;11.77;;;7.50;;
60999;SDS011;46879;45.658;11.814;2023-09-18T12:36:52;18.85;;;8.57;;
60999;SDS011;46879;45.658;11.814;2023-09-18T12:41:53;20.83;;;7.88;;
60999;SDS011;46879;45.658;11.814;2023-09-18T12:46:53;14.57;;;7.45;;
60999;SDS011;46879;45.658;11.814;2023-09-18T12:51:58;19.20;;;8.75;;
60999;SDS011;46879;45.658;11.814;2023-09-18T12:57:00;17.23;;;8.45;;
60999;SDS011;46879;45.658;11.814;2023-09-18T13:02:04;17.02;;;7.70;;
60999;SDS011;46879;45.658;11.814;2023-09-18T13:07:14;21.73;;;7.88;;
60999;SDS011;46879;45.658;11.814;2023-09-18T13:12:15;16.20;;;7.25;;
60999;SDS011;46879;45.658;11.814;2023-09-18T13:17:15;18.65;;;7.80;;
60999;SDS011;46879;45.658;11.814;2023-09-18T13:22:25;12.60;;;7.60;;
60999;SDS011;46879;45.658;11.814;2023-09-18T13:27:26;15.93;;;7.35;;
60999;SDS011;46879;45.658;11.814;2023-09-18T13:32:27;16.35;;;6.78;;
60999;SDS011;46879;45.658;11.814;2023-09-18T13:37:27;15.90;;;6.72;;
60999;SDS011;46879;45.658;11.814;2023-09-18T13:42:29;13.95;;;7.65;;
60999;SDS011;46879;45.658;11.814;2023-09-18T13:47:30;17.67;;;7.35;;
60999;SDS011;46879;45.658;11.814;2023-09-18T13:52:31;12.57;;;7.70;;
60999;SDS011;46879;45.658;11.814;2023-09-18T13:57:34;14.68;;;7.35;;
60999;SDS011;46879;45.658;11.814;2023-09-18T14:02:35;10.18;;;6.60;;
60999;SDS011;46879;45.658;11.814;2023-09-18T14:07:35;14.35;;;7.28;;
60999;SDS011;46879;45.658;11.814;2023-09-18T14:12:41;17.45;;;7.00;;
60999;SDS011;46879;45.658;11.814;2023-09-18T14:17:43;19.92;;;7.15;;
60999;SDS011;46879;45.658;11.814;2023-09-18T14:22:43;12.85;;;7.68;;
60999;SDS011;46879;45.658;11.814;2023-09-18T14:27:44;12.70;;;6.43;;
60999;SDS011;46879;45.658;11.814;2023-09-18T14:32:45;9.13;;;6.90;;
60999;SDS011;46879;45.658;11.814;2023-09-18T14:37:46;14.55;;;7.13;;
60999;SDS011;46879;45.658;11.814;2023-09-18T14:42:46;11.50;;;6.90;;
60999;SDS011;46879;45.658;11.814;2023-09-18T14:47:47;13.00;;;7.30;;
60999;SDS011;46879;45.658;11.814;2023-09-18T14:52:48;12.27;;;6.20;;
60999;SDS011;46879;45.658;11.814;2023-09-18T14:57:49;17.27;;;7.15;;
60999;SDS011;46879;45.658;11.814;2023-09-18T15:02:49;11.95;;;7.55;;
60999;SDS011;46879;45.658;11.814;2023-09-18T15:07:50;10.90;;;6.78;;
60999;SDS011;46879;45.658;11.814;2023-09-18T15:12:51;12.52;;;6.95;;
60999;SDS011;46879;45.658;11.814;2023-09-18T15:17:52;14.70;;;6.78;;
60999;SDS011;46879;45.658;11.814;2023-09-18T15:22:53;11.48;;;6.28;;
60999;SDS011;46879;45.658;11.814;2023-09-18T15:27:55;13.73;;;6.88;;
60999;SDS011;46879;45.658;11.814;2023-09-18T15:32:56;9.43;;;6.70;;
60999;SDS011;46879;45.658;11.814;2023-09-18T15:37:57;10.32;;;6.60;;
60999;SDS011;46879;45.658;11.814;2023-09-18T15:42:57;12.25;;;6.63;;
60999;SDS011;46879;45.658;11.814;2023-09-18T15:47:58;7.82;;;5.88;;
60999;SDS011;46879;45.658;11.814;2023-09-18T15:52:58;11.88;;;6.68;;
60999;SDS011;46879;45.658;11.814;2023-09-18T15:57:59;11.23;;;6.80;;
60999;SDS011;46879;45.658;11.814;2023-09-18T16:03:00;8.35;;;6.63;;
60999;SDS011;46879;45.658;11.814;2023-09-18T16:08:01;9.20;;;6.35;;
60999;SDS011;46879;45.658;11.814;2023-09-18T16:13:04;10.82;;;7.13;;
60999;SDS011;46879;45.658;11.814;2023-09-18T16:18:05;6.25;;;5.68;;
60999;SDS011;46879;45.658;11.814;2023-09-18T16:23:05;8.25;;;6.22;;
60999;SDS011;46879;45.658;11.814;2023-09-18T16:28:06;11.57;;;6.10;;
60999;SDS011;46879;45.658;11.814;2023-09-18T16:33:06;8.80;;;6.30;;
60999;SDS011;46879;45.658;11.814;2023-09-18T16:38:08;8.90;;;6.32;;
60999;SDS011;46879;45.658;11.814;2023-09-18T16:43:08;7.78;;;5.85;;
60999;SDS011;46879;45.658;11.814;2023-09-18T16:48:10;13.57;;;7.35;;
60999;SDS011;46879;45.658;11.814;2023-09-18T16:53:11;16.38;;;6.70;;
60999;SDS011;46879;45.658;11.814;2023-09-18T16:58:11;8.13;;;6.13;;
60999;SDS011;46879;45.658;11.814;2023-09-18T17:03:12;13.68;;;6.97;;
60999;SDS011;46879;45.658;11.814;2023-09-18T17:08:13;8.25;;;6.60;;
60999;SDS011;46879;45.658;11.814;2023-09-18T17:13:14;11.02;;;6.68;;
60999;SDS011;46879;45.658;11.814;2023-09-18T17:18:14;11.60;;;6.20;;
60999;SDS011;46879;45.658;11.814;2023-09-18T17:23:15;8.95;;;7.10;;
60999;SDS011;46879;45.658;11.814;2023-09-18T17:28:16;10.57;;;7.78;;
60999;SDS011;46879;45.658;11.814;2023-09-18T17:33:16;13.05;;;8.20;;
60999;SDS011;46879;45.658;11.814;2023-09-18T17:38:17;16.30;;;8.20;;
60999;SDS011;46879;45.658;11.814;2023-09-18T17:43:18;15.45;;;9.48;;
60999;SDS011;46879;45.658;11.814;2023-09-18T17:48:19;16.50;;;9.07;;
60999;SDS011;46879;45.658;11.814;2023-09-18T17:53:20;15.52;;;8.98;;
60999;SDS011;46879;45.658;11.814;2023-09-18T17:58:20;14.65;;;8.68;;
60999;SDS011;46879;45.658;11.814;2023-09-18T18:03:21;13.35;;;9.02;;
60999;SDS011;46879;45.658;11.814;2023-09-18T18:08:22;16.20;;;8.88;;
60999;SDS011;46879;45.658;11.814;2023-09-18T18:13:22;15.77;;;8.77;;
60999;SDS011;46879;45.658;11.814;2023-09-18T18:18:23;19.05;;;8.13;;
60999;SDS011;46879;45.658;11.814;2023-09-18T18:23:23;11.10;;;8.13;;
60999;SDS011;46879;45.658;11.814;2023-09-18T18:28:24;14.25;;;7.60;;
60999;SDS011;46879;45.658;11.814;2023-09-18T18:33:25;13.90;;;8.05;;
60999;SDS011;46879;45.658;11.814;2023-09-18T18:38:25;8.65;;;7.07;;
60999;SDS011;46879;45.658;11.814;2023-09-18T18:43:26;11.38;;;6.60;;
60999;SDS011;46879;45.658;11.814;2023-09-18T18:48:27;8.65;;;6.25;;
60999;SDS011;46879;45.658;11.814;2023-09-18T18:53:27;6.60;;;5.88;;
60999;SDS011;46879;45.658;11.814;2023-09-18T18:58:30;8.05;;;6.05;;
60999;SDS011;46879;45.658;11.814;2023-09-18T19:03:32;6.72;;;5.68;;
60999;SDS011;46879;45.658;11.814;2023-09-18T19:08:35;12.73;;;5.93;;
60999;SDS011;46879;45.658;11.814;2023-09-18T19:13:37;9.10;;;5.43;;
60999;SDS011;46879;45.658;11.814;2023-09-18T19:18:42;8.35;;;5.85;;
60999;SDS011;46879;45.658;11.814;2023-09-18T19:23:43;8.07;;;5.22;;
60999;SDS011;46879;45.658;11.814;2023-09-18T19:28:44;8.20;;;5.05;;
60999;SDS011;46879;45.658;11.814;2023-09-18T19:33:45;10.57;;;5.18;;
60999;SDS011;46879;45.658;11.814;2023-09-18T19:38:46;8.77;;;5.20;;
60999;SDS011;46879;45.658;11.814;2023-09-18T19:43:46;8.00;;;5.15;;
60999;SDS011;46879;45.658;11.814;2023-09-18T19:48:47;7.65;;;5.40;;
60999;SDS011;46879;45.658;11.814;2023-09-18T19:53:47;9.63;;;4.72;;
60999;SDS011;46879;45.658;11.814;2023-09-18T19:58:48;9.48;;;4.90;;
60999;SDS011;46879;45.658;11.814;2023-09-18T20:03:48;7.57;;;4.50;;
60999;SDS011;46879;45.658;11.814;2023-09-18T20:08:49;7.97;;;4.90;;
60999;SDS011;46879;45.658;11.814;2023-09-18T20:13:50;11.70;;;5.28;;
60999;SDS011;46879;45.658;11.814;2023-09-18T20:18:51;15.27;;;6.18;;
60999;SDS011;46879;45.658;11.814;2023-09-18T20:23:52;9.90;;;5.85;;
60999;SDS011;46879;45.658;11.814;2023-09-18T20:28:53;8.75;;;5.18;;
60999;SDS011;46879;45.658;11.814;2023-09-18T20:33:53;12.40;;;5.20;;
60999;SDS011;46879;45.658;11.814;2023-09-18T20:38:54;9.88;;;5.55;;
60999;SDS011;46879;45.658;11.814;2023-09-18T20:43:55;15.65;;;7.03;;
60999;SDS011;46879;45.658;11.814;2023-09-18T20:48:56;8.50;;;6.05;;
60999;SDS011;46879;45.658;11.814;2023-09-18T20:53:56;12.40;;;5.15;;
60999;SDS011;46879;45.658;11.814;2023-09-18T20:58:59;11.43;;;4.60;;
60999;SDS011;46879;45.658;11.814;2023-09-18T21:04:02;13.90;;;4.30;;
60999;SDS011;46879;45.658;11.814;2023-09-18T21:09:04;8.45;;;3.90;;
60999;SDS011;46879;45.658;11.814;2023-09-18T21:14:06;10.77;;;4.20;;
60999;SDS011;46879;45.658;11.814;2023-09-18T21:19:08;11.27;;;4.43;;
60999;SDS011;46879;45.658;11.814;2023-09-18T21:24:08;15.07;;;4.07;;
60999;SDS011;46879;45.658;11.814;2023-09-18T21:29:09;9.95;;;3.70;;
60999;SDS011;46879;45.658;11.814;2023-09-18T21:34:10;9.30;;;4.00;;
60999;SDS011;46879;45.658;11.814;2023-09-18T21:39:11;7.60;;;3.45;;
60999;SDS011;46879;45.658;11.814;2023-09-18T21:44:11;7.75;;;3.25;;
60999;SDS011;46879;45.658;11.814;2023-09-18T21:49:12;5.13;;;2.75;;
60999;SDS011;46879;45.658;11.814;2023-09-18T21:54:14;8.52;;;3.22;;
60999;SDS011;46879;45.658;11.814;2023-09-18T21:59:15;7.15;;;2.90;;
60999;SDS011;46879;45.658;11.814;2023-09-18T22:04:15;8.52;;;3.00;;
60999;SDS011;46879;45.658;11.814;2023-09-18T22:09:17;8.52;;;3.17;;
60999;SDS011;46879;45.658;11.814;2023-09-18T22:14:19;7.28;;;3.22;;
60999;SDS011;46879;45.658;11.814;2023-09-18T22:19:21;7.20;;;2.97;;
60999;SDS011;46879;45.658;11.814;2023-09-18T22:24:22;10.63;;;3.35;;
60999;SDS011;46879;45.658;11.814;2023-09-18T22:29:24;15.57;;;3.28;;
60999;SDS011;46879;45.658;11.814;2023-09-18T22:34:25;6.70;;;3.50;;
60999;SDS011;46879;45.658;11.814;2023-09-18T22:56:53;7.88;;;3.17;;
60999;SDS011;46879;45.658;11.814;2023-09-18T23:01:53;10.70;;;3.30;;
60999;SDS011;46879;45.658;11.814;2023-09-18T23:06:54;4.50;;;3.10;;
60999;SDS011;46879;45.658;11.814;2023-09-18T23:11:58;6.32;;;3.03;;
60999;SDS011;46879;45.658;11.814;2023-09-18T23:17:02;10.65;;;3.08;;
60999;SDS011;46879;45.658;11.814;2023-09-18T23:22:09;7.35;;;3.20;;
60999;SDS011;46879;45.658;11.814;2023-09-18T23:27:12;8.82;;;3.65;;
60999;SDS011;46879;45.658;11.814;2023-09-18T23:32:12;8.52;;;3.17;;
60999;SDS011;46879;45.658;11.814;2023-09-18T23:37:13;5.68;;;3.40;;
60999;SDS011;46879;45.658;11.814;2023-09-18T23:42:13;6.03;;;3.15;;
60999;SDS011;46879;45.658;11.814;2023-09-18T23:47:14;10.40;;;4.22;;
60999;SDS011;46879;45.658;11.814;2023-09-18T23:52:15;12.50;;;3.60;;
60999;SDS011;46879;45.658;11.814;2023-09-18T23:57:16;3.95;;;3.05;;
